sensor_id;sensor_type;location;lat;lon;timestamp;P1;durP1;ratioP1;P2;durP2;ratioP2
51296;SDS011;37380;45.186;9.792;2022-10-31T00:00:19;34.53;;;22.10;;
51296;SDS011;37380;45.186;9.792;2022-10-31T00:03:13;26.40;;;21.67;;
51296;SDS011;37380;45.186;9.792;2022-10-31T00:05:41;31.50;;;21.20;;
51296;SDS011;37380;45.186;9.792;2022-10-31T00:08:09;31.27;;;20.70;;
51296;SDS011;37380;45.186;9.792;2022-10-31T00:10:37;28.00;;;22.50;;
51296;SDS011;37380;45.186;9.792;2022-10-31T00:13:05;31.25;;;20.92;;
51296;SDS011;37380;45.186;9.792;2022-10-31T00:15:36;27.17;;;18.88;;
51296;SDS011;37380;45.186;9.792;2022-10-31T00:18:05;33.30;;;22.27;;
51296;SDS011;37380;45.186;9.792;2022-10-31T00:20:33;20.80;;;16.42;;
51296;SDS011;37380;45.186;9.792;2022-10-31T00:23:07;25.63;;;16.30;;
51296;SDS011;37380;45.186;9.792;2022-10-31T00:26:03;24.23;;;18.23;;
51296;SDS011;37380;45.186;9.792;2022-10-31T00:28:30;20.55;;;18.35;;
51296;SDS011;37380;45.186;9.792;2022-10-31T00:30:59;31.50;;;20.00;;
51296;SDS011;37380;45.186;9.792;2022-10-31T00:33:30;28.13;;;21.23;;
51296;SDS011;37380;45.186;9.792;2022-10-31T00:35:59;26.27;;;22.88;;
51296;SDS011;37380;45.186;9.792;2022-10-31T00:38:32;27.70;;;22.98;;
51296;SDS011;37380;45.186;9.792;2022-10-31T00:41:34;39.22;;;24.30;;
51296;SDS011;37380;45.186;9.792;2022-10-31T00:44:28;32.10;;;23.42;;
51296;SDS011;37380;45.186;9.792;2022-10-31T00:46:55;35.85;;;23.95;;
51296;SDS011;37380;45.186;9.792;2022-10-31T00:49:22;34.70;;;24.38;;
51296;SDS011;37380;45.186;9.792;2022-10-31T00:51:49;37.20;;;24.65;;
51296;SDS011;37380;45.186;9.792;2022-10-31T00:54:22;32.80;;;24.23;;
51296;SDS011;37380;45.186;9.792;2022-10-31T00:57:24;32.13;;;22.98;;
51296;SDS011;37380;45.186;9.792;2022-10-31T01:00:18;29.95;;;21.10;;
51296;SDS011;37380;45.186;9.792;2022-10-31T01:02:52;39.80;;;23.38;;
51296;SDS011;37380;45.186;9.792;2022-10-31T01:08:32;35.15;;;23.90;;
51296;SDS011;37380;45.186;9.792;2022-10-31T01:13:39;41.42;;;26.17;;
51296;SDS011;37380;45.186;9.792;2022-10-31T01:16:07;43.35;;;25.75;;
51296;SDS011;37380;45.186;9.792;2022-10-31T01:18:37;38.42;;;29.33;;
51296;SDS011;37380;45.186;9.792;2022-10-31T01:21:06;31.33;;;24.90;;
51296;SDS011;37380;45.186;9.792;2022-10-31T01:23:34;54.75;;;28.77;;
51296;SDS011;37380;45.186;9.792;2022-10-31T01:26:08;32.85;;;25.00;;
51296;SDS011;37380;45.186;9.792;2022-10-31T01:28:42;35.00;;;23.92;;
51296;SDS011;37380;45.186;9.792;2022-10-31T01:31:14;34.35;;;22.42;;
51296;SDS011;37380;45.186;9.792;2022-10-31T01:33:49;41.53;;;28.10;;
51296;SDS011;37380;45.186;9.792;2022-10-31T01:36:44;43.85;;;28.35;;
51296;SDS011;37380;45.186;9.792;2022-10-31T01:39:14;35.25;;;26.58;;
51296;SDS011;37380;45.186;9.792;2022-10-31T01:41:51;39.60;;;27.95;;
51296;SDS011;37380;45.186;9.792;2022-10-31T01:47:14;42.63;;;25.48;;
51296;SDS011;37380;45.186;9.792;2022-10-31T01:49:47;31.02;;;24.25;;
51296;SDS011;37380;45.186;9.792;2022-10-31T01:55:22;35.17;;;27.33;;
51296;SDS011;37380;45.186;9.792;2022-10-31T01:58:11;33.90;;;26.13;;
51296;SDS011;37380;45.186;9.792;2022-10-31T02:00:45;33.95;;;26.75;;
51296;SDS011;37380;45.186;9.792;2022-10-31T02:03:15;33.70;;;26.88;;
51296;SDS011;37380;45.186;9.792;2022-10-31T02:05:43;46.47;;;28.33;;
51296;SDS011;37380;45.186;9.792;2022-10-31T02:08:18;62.05;;;28.38;;
51296;SDS011;37380;45.186;9.792;2022-10-31T02:10:49;38.53;;;27.80;;
51296;SDS011;37380;45.186;9.792;2022-10-31T02:13:23;39.10;;;28.77;;
51296;SDS011;37380;45.186;9.792;2022-10-31T02:16:25;44.47;;;25.98;;
51296;SDS011;37380;45.186;9.792;2022-10-31T02:19:22;44.88;;;27.73;;
51296;SDS011;37380;45.186;9.792;2022-10-31T02:25:21;49.13;;;30.20;;
51296;SDS011;37380;45.186;9.792;2022-10-31T02:33:35;40.17;;;26.88;;
51296;SDS011;37380;45.186;9.792;2022-10-31T02:36:15;53.58;;;29.98;;
51296;SDS011;37380;45.186;9.792;2022-10-31T02:42:18;37.88;;;24.85;;
51296;SDS011;37380;45.186;9.792;2022-10-31T02:48:19;34.28;;;25.55;;
51296;SDS011;37380;45.186;9.792;2022-10-31T02:50:55;37.58;;;27.92;;
51296;SDS011;37380;45.186;9.792;2022-10-31T02:53:34;38.60;;;25.73;;
51296;SDS011;37380;45.186;9.792;2022-10-31T02:56:29;36.53;;;25.25;;
51296;SDS011;37380;45.186;9.792;2022-10-31T02:58:59;36.83;;;25.92;;
51296;SDS011;37380;45.186;9.792;2022-10-31T03:01:48;45.88;;;28.13;;
51296;SDS011;37380;45.186;9.792;2022-10-31T03:04:27;33.38;;;25.77;;
51296;SDS011;37380;45.186;9.792;2022-10-31T03:07:21;39.83;;;26.67;;
51296;SDS011;37380;45.186;9.792;2022-10-31T03:19:41;30.50;;;25.42;;
51296;SDS011;37380;45.186;9.792;2022-10-31T03:22:19;36.38;;;26.08;;
51296;SDS011;37380;45.186;9.792;2022-10-31T03:24:52;37.63;;;26.15;;
51296;SDS011;37380;45.186;9.792;2022-10-31T03:27:23;28.55;;;24.90;;
51296;SDS011;37380;45.186;9.792;2022-10-31T03:29:54;58.35;;;29.08;;
51296;SDS011;37380;45.186;9.792;2022-10-31T03:34:58;29.98;;;24.45;;
51296;SDS011;37380;45.186;9.792;2022-10-31T03:37:29;32.78;;;27.73;;
51296;SDS011;37380;45.186;9.792;2022-10-31T03:39:59;33.15;;;24.35;;
51296;SDS011;37380;45.186;9.792;2022-10-31T03:42:38;30.92;;;24.52;;
51296;SDS011;37380;45.186;9.792;2022-10-31T03:45:43;44.22;;;27.73;;
51296;SDS011;37380;45.186;9.792;2022-10-31T03:53:55;45.03;;;28.65;;
51296;SDS011;37380;45.186;9.792;2022-10-31T03:56:55;36.00;;;27.45;;
51296;SDS011;37380;45.186;9.792;2022-10-31T03:59:28;38.35;;;28.35;;
51296;SDS011;37380;45.186;9.792;2022-10-31T04:02:15;45.55;;;30.15;;
51296;SDS011;37380;45.186;9.792;2022-10-31T04:05:11;41.88;;;30.33;;
51296;SDS011;37380;45.186;9.792;2022-10-31T04:07:43;37.30;;;29.77;;
51296;SDS011;37380;45.186;9.792;2022-10-31T04:10:13;33.28;;;26.73;;
51296;SDS011;37380;45.186;9.792;2022-10-31T04:12:44;36.30;;;26.92;;
51296;SDS011;37380;45.186;9.792;2022-10-31T04:15:21;45.20;;;31.25;;
51296;SDS011;37380;45.186;9.792;2022-10-31T04:17:51;46.85;;;31.13;;
51296;SDS011;37380;45.186;9.792;2022-10-31T04:20:38;39.08;;;30.63;;
51296;SDS011;37380;45.186;9.792;2022-10-31T04:23:27;40.05;;;29.33;;
51296;SDS011;37380;45.186;9.792;2022-10-31T04:25:55;34.90;;;29.42;;
51296;SDS011;37380;45.186;9.792;2022-10-31T04:28:23;37.28;;;29.38;;
51296;SDS011;37380;45.186;9.792;2022-10-31T04:30:50;44.55;;;30.55;;
51296;SDS011;37380;45.186;9.792;2022-10-31T04:33:18;44.67;;;28.92;;
51296;SDS011;37380;45.186;9.792;2022-10-31T04:35:46;39.00;;;29.67;;
51296;SDS011;37380;45.186;9.792;2022-10-31T04:38:14;38.65;;;29.15;;
51296;SDS011;37380;45.186;9.792;2022-10-31T04:40:48;39.17;;;28.52;;
51296;SDS011;37380;45.186;9.792;2022-10-31T04:44:13;33.25;;;26.63;;
51296;SDS011;37380;45.186;9.792;2022-10-31T04:47:08;26.80;;;23.95;;
51296;SDS011;37380;45.186;9.792;2022-10-31T04:49:35;33.90;;;25.50;;
51296;SDS011;37380;45.186;9.792;2022-10-31T04:52:02;35.22;;;28.38;;
51296;SDS011;37380;45.186;9.792;2022-10-31T04:54:36;43.63;;;30.98;;
51296;SDS011;37380;45.186;9.792;2022-10-31T04:57:55;37.63;;;30.67;;
51296;SDS011;37380;45.186;9.792;2022-10-31T05:00:53;47.28;;;28.60;;
51296;SDS011;37380;45.186;9.792;2022-10-31T05:03:21;43.17;;;28.83;;
51296;SDS011;37380;45.186;9.792;2022-10-31T05:05:49;39.05;;;28.83;;
51296;SDS011;37380;45.186;9.792;2022-10-31T05:08:16;41.70;;;30.45;;
51296;SDS011;37380;45.186;9.792;2022-10-31T05:10:44;40.95;;;30.38;;
51296;SDS011;37380;45.186;9.792;2022-10-31T05:13:12;45.33;;;30.90;;
51296;SDS011;37380;45.186;9.792;2022-10-31T05:15:42;45.75;;;34.40;;
51296;SDS011;37380;45.186;9.792;2022-10-31T05:18:27;47.58;;;35.40;;
51296;SDS011;37380;45.186;9.792;2022-10-31T05:21:13;50.13;;;32.75;;
51296;SDS011;37380;45.186;9.792;2022-10-31T05:23:43;45.83;;;31.75;;
51296;SDS011;37380;45.186;9.792;2022-10-31T05:26:14;42.95;;;32.47;;
51296;SDS011;37380;45.186;9.792;2022-10-31T05:28:41;31.02;;;27.65;;
51296;SDS011;37380;45.186;9.792;2022-10-31T05:31:10;31.70;;;27.52;;
51296;SDS011;37380;45.186;9.792;2022-10-31T05:33:37;36.65;;;28.02;;
51296;SDS011;37380;45.186;9.792;2022-10-31T05:36:22;38.90;;;30.08;;
51296;SDS011;37380;45.186;9.792;2022-10-31T05:38:56;33.88;;;27.00;;
51296;SDS011;37380;45.186;9.792;2022-10-31T05:41:33;35.63;;;27.02;;
51296;SDS011;37380;45.186;9.792;2022-10-31T05:44:38;35.53;;;27.90;;
51296;SDS011;37380;45.186;9.792;2022-10-31T05:47:58;37.45;;;27.55;;
51296;SDS011;37380;45.186;9.792;2022-10-31T05:51:21;33.28;;;28.63;;
51296;SDS011;37380;45.186;9.792;2022-10-31T05:53:55;52.80;;;30.48;;
51296;SDS011;37380;45.186;9.792;2022-10-31T05:56:54;30.88;;;27.23;;
51296;SDS011;37380;45.186;9.792;2022-10-31T05:59:21;41.55;;;28.10;;
51296;SDS011;37380;45.186;9.792;2022-10-31T06:01:55;34.58;;;27.00;;
51296;SDS011;37380;45.186;9.792;2022-10-31T06:05:13;43.42;;;28.63;;
51296;SDS011;37380;45.186;9.792;2022-10-31T06:07:46;40.60;;;27.13;;
51296;SDS011;37380;45.186;9.792;2022-10-31T06:10:43;35.63;;;27.00;;
51296;SDS011;37380;45.186;9.792;2022-10-31T06:13:13;39.35;;;29.02;;
51296;SDS011;37380;45.186;9.792;2022-10-31T06:15:47;43.15;;;28.92;;
51296;SDS011;37380;45.186;9.792;2022-10-31T06:18:19;43.67;;;29.42;;
51296;SDS011;37380;45.186;9.792;2022-10-31T06:20:48;41.63;;;29.63;;
51296;SDS011;37380;45.186;9.792;2022-10-31T06:23:15;32.97;;;26.73;;
51296;SDS011;37380;45.186;9.792;2022-10-31T06:25:48;45.03;;;28.25;;
51296;SDS011;37380;45.186;9.792;2022-10-31T06:28:16;38.42;;;27.77;;
51296;SDS011;37380;45.186;9.792;2022-10-31T06:30:58;35.60;;;25.65;;
51296;SDS011;37380;45.186;9.792;2022-10-31T06:33:26;36.15;;;26.17;;
51296;SDS011;37380;45.186;9.792;2022-10-31T06:35:55;44.95;;;26.60;;
51296;SDS011;37380;45.186;9.792;2022-10-31T06:38:25;33.10;;;24.20;;
51296;SDS011;37380;45.186;9.792;2022-10-31T06:40:54;33.00;;;24.17;;
51296;SDS011;37380;45.186;9.792;2022-10-31T06:43:48;35.70;;;26.40;;
51296;SDS011;37380;45.186;9.792;2022-10-31T06:46:55;47.85;;;25.55;;
51296;SDS011;37380;45.186;9.792;2022-10-31T06:49:49;28.88;;;22.17;;
51296;SDS011;37380;45.186;9.792;2022-10-31T06:52:54;44.78;;;25.63;;
51296;SDS011;37380;45.186;9.792;2022-10-31T06:55:52;35.20;;;24.35;;
51296;SDS011;37380;45.186;9.792;2022-10-31T06:58:19;30.13;;;25.73;;
51296;SDS011;37380;45.186;9.792;2022-10-31T07:00:47;36.08;;;23.20;;
51296;SDS011;37380;45.186;9.792;2022-10-31T07:03:16;33.55;;;23.92;;
51296;SDS011;37380;45.186;9.792;2022-10-31T07:05:44;38.00;;;24.50;;
51296;SDS011;37380;45.186;9.792;2022-10-31T07:08:12;42.30;;;24.42;;
51296;SDS011;37380;45.186;9.792;2022-10-31T07:10:41;30.30;;;23.55;;
51296;SDS011;37380;45.186;9.792;2022-10-31T07:13:10;31.02;;;23.10;;
51296;SDS011;37380;45.186;9.792;2022-10-31T07:15:48;31.35;;;22.88;;
51296;SDS011;37380;45.186;9.792;2022-10-31T07:18:15;39.58;;;23.40;;
51296;SDS011;37380;45.186;9.792;2022-10-31T07:20:43;33.13;;;22.25;;
51296;SDS011;37380;45.186;9.792;2022-10-31T07:23:10;34.92;;;21.98;;
51296;SDS011;37380;45.186;9.792;2022-10-31T07:25:41;36.13;;;23.45;;
51296;SDS011;37380;45.186;9.792;2022-10-31T07:28:14;31.00;;;22.90;;
51296;SDS011;37380;45.186;9.792;2022-10-31T07:30:48;28.17;;;22.45;;
51296;SDS011;37380;45.186;9.792;2022-10-31T07:33:19;35.72;;;21.65;;
51296;SDS011;37380;45.186;9.792;2022-10-31T07:36:06;34.97;;;21.80;;
51296;SDS011;37380;45.186;9.792;2022-10-31T07:38:33;29.00;;;21.00;;
51296;SDS011;37380;45.186;9.792;2022-10-31T07:41:09;42.60;;;22.70;;
51296;SDS011;37380;45.186;9.792;2022-10-31T07:44:03;24.92;;;19.70;;
51296;SDS011;37380;45.186;9.792;2022-10-31T07:47:15;33.45;;;21.98;;
51296;SDS011;37380;45.186;9.792;2022-10-31T07:50:01;41.30;;;22.70;;
51296;SDS011;37380;45.186;9.792;2022-10-31T07:56:18;34.78;;;22.08;;
51296;SDS011;37380;45.186;9.792;2022-10-31T07:58:45;38.20;;;21.70;;
51296;SDS011;37380;45.186;9.792;2022-10-31T08:01:13;36.92;;;20.70;;
51296;SDS011;37380;45.186;9.792;2022-10-31T08:03:47;33.90;;;21.20;;
51296;SDS011;37380;45.186;9.792;2022-10-31T08:06:34;37.47;;;22.08;;
51296;SDS011;37380;45.186;9.792;2022-10-31T08:09:21;29.58;;;20.73;;
51296;SDS011;37380;45.186;9.792;2022-10-31T08:11:49;31.65;;;20.10;;
51296;SDS011;37380;45.186;9.792;2022-10-31T08:14:18;41.92;;;19.98;;
51296;SDS011;37380;45.186;9.792;2022-10-31T08:16:46;28.85;;;20.20;;
51296;SDS011;37380;45.186;9.792;2022-10-31T08:19:13;32.33;;;21.30;;
51296;SDS011;37380;45.186;9.792;2022-10-31T08:21:42;34.15;;;20.48;;
51296;SDS011;37380;45.186;9.792;2022-10-31T08:24:10;39.25;;;20.13;;
51296;SDS011;37380;45.186;9.792;2022-10-31T08:26:38;33.78;;;21.75;;
51296;SDS011;37380;45.186;9.792;2022-10-31T08:29:08;44.42;;;21.63;;
51296;SDS011;37380;45.186;9.792;2022-10-31T08:31:37;43.10;;;20.25;;
51296;SDS011;37380;45.186;9.792;2022-10-31T08:34:27;27.90;;;20.10;;
51296;SDS011;37380;45.186;9.792;2022-10-31T08:37:26;28.60;;;17.98;;
51296;SDS011;37380;45.186;9.792;2022-10-31T08:39:54;37.25;;;20.13;;
51296;SDS011;37380;45.186;9.792;2022-10-31T08:42:27;33.10;;;20.15;;
51296;SDS011;37380;45.186;9.792;2022-10-31T08:45:29;33.33;;;20.13;;
51296;SDS011;37380;45.186;9.792;2022-10-31T08:48:38;32.22;;;21.13;;
51296;SDS011;37380;45.186;9.792;2022-10-31T08:51:40;30.55;;;21.58;;
51296;SDS011;37380;45.186;9.792;2022-10-31T08:54:15;40.40;;;20.98;;
51296;SDS011;37380;45.186;9.792;2022-10-31T08:57:44;33.10;;;19.80;;
51296;SDS011;37380;45.186;9.792;2022-10-31T09:00:12;26.42;;;20.77;;
51296;SDS011;37380;45.186;9.792;2022-10-31T09:03:12;30.23;;;18.45;;
51296;SDS011;37380;45.186;9.792;2022-10-31T09:05:43;30.70;;;20.02;;
51296;SDS011;37380;45.186;9.792;2022-10-31T09:08:12;32.50;;;20.13;;
51296;SDS011;37380;45.186;9.792;2022-10-31T09:10:44;35.58;;;21.30;;
51296;SDS011;37380;45.186;9.792;2022-10-31T09:13:21;33.33;;;21.65;;
51296;SDS011;37380;45.186;9.792;2022-10-31T09:16:38;34.65;;;21.20;;
51296;SDS011;37380;45.186;9.792;2022-10-31T09:19:11;35.97;;;20.95;;
51296;SDS011;37380;45.186;9.792;2022-10-31T09:21:44;39.90;;;20.63;;
51296;SDS011;37380;45.186;9.792;2022-10-31T09:24:11;41.95;;;21.73;;
51296;SDS011;37380;45.186;9.792;2022-10-31T09:26:40;39.60;;;19.75;;
51296;SDS011;37380;45.186;9.792;2022-10-31T09:29:22;29.42;;;21.65;;
51296;SDS011;37380;45.186;9.792;2022-10-31T09:32:01;39.10;;;22.00;;
51296;SDS011;37380;45.186;9.792;2022-10-31T09:35:02;27.83;;;20.35;;
51296;SDS011;37380;45.186;9.792;2022-10-31T09:38:03;41.30;;;21.75;;
51296;SDS011;37380;45.186;9.792;2022-10-31T09:40:44;39.67;;;21.58;;
51296;SDS011;37380;45.186;9.792;2022-10-31T09:51:53;35.25;;;23.27;;
51296;SDS011;37380;45.186;9.792;2022-10-31T09:54:44;31.50;;;22.15;;
51296;SDS011;37380;45.186;9.792;2022-10-31T09:57:54;33.70;;;22.50;;
51296;SDS011;37380;45.186;9.792;2022-10-31T10:00:49;43.78;;;24.17;;
51296;SDS011;37380;45.186;9.792;2022-10-31T10:03:33;39.78;;;25.60;;
51296;SDS011;37380;45.186;9.792;2022-10-31T10:06:23;46.00;;;24.85;;
51296;SDS011;37380;45.186;9.792;2022-10-31T10:09:14;45.65;;;26.00;;
51296;SDS011;37380;45.186;9.792;2022-10-31T10:12:19;36.70;;;25.30;;
51296;SDS011;37380;45.186;9.792;2022-10-31T10:24:00;52.15;;;26.42;;
51296;SDS011;37380;45.186;9.792;2022-10-31T10:32:40;59.35;;;26.13;;
51296;SDS011;37380;45.186;9.792;2022-10-31T10:35:48;35.22;;;22.70;;
51296;SDS011;37380;45.186;9.792;2022-10-31T10:38:26;40.78;;;22.88;;
51296;SDS011;37380;45.186;9.792;2022-10-31T10:41:18;39.97;;;23.07;;
51296;SDS011;37380;45.186;9.792;2022-10-31T10:44:14;29.65;;;22.05;;
51296;SDS011;37380;45.186;9.792;2022-10-31T10:49:35;33.97;;;20.00;;
51296;SDS011;37380;45.186;9.792;2022-10-31T10:52:28;45.50;;;20.75;;
51296;SDS011;37380;45.186;9.792;2022-10-31T10:55:48;29.85;;;19.10;;
51296;SDS011;37380;45.186;9.792;2022-10-31T10:58:40;44.90;;;20.40;;
51296;SDS011;37380;45.186;9.792;2022-10-31T11:01:10;57.13;;;19.42;;
51296;SDS011;37380;45.186;9.792;2022-10-31T11:03:45;27.90;;;19.50;;
51296;SDS011;37380;45.186;9.792;2022-10-31T11:06:55;26.95;;;18.38;;
51296;SDS011;37380;45.186;9.792;2022-10-31T11:10:02;30.25;;;19.30;;
51296;SDS011;37380;45.186;9.792;2022-10-31T11:12:32;33.08;;;18.15;;
51296;SDS011;37380;45.186;9.792;2022-10-31T11:15:03;31.08;;;19.60;;
51296;SDS011;37380;45.186;9.792;2022-10-31T11:17:46;34.63;;;18.33;;
51296;SDS011;37380;45.186;9.792;2022-10-31T11:22:59;34.72;;;18.20;;
51296;SDS011;37380;45.186;9.792;2022-10-31T11:25:59;51.43;;;19.47;;
51296;SDS011;37380;45.186;9.792;2022-10-31T11:28:29;31.35;;;17.65;;
51296;SDS011;37380;45.186;9.792;2022-10-31T11:31:05;29.10;;;16.08;;
51296;SDS011;37380;45.186;9.792;2022-10-31T11:34:42;29.45;;;17.13;;
51296;SDS011;37380;45.186;9.792;2022-10-31T11:37:32;32.22;;;17.40;;
51296;SDS011;37380;45.186;9.792;2022-10-31T11:40:19;25.30;;;16.17;;
51296;SDS011;37380;45.186;9.792;2022-10-31T11:43:16;29.08;;;18.67;;
51296;SDS011;37380;45.186;9.792;2022-10-31T11:45:44;30.42;;;16.85;;
51296;SDS011;37380;45.186;9.792;2022-10-31T11:48:20;41.20;;;20.23;;
51296;SDS011;37380;45.186;9.792;2022-10-31T11:51:24;40.50;;;17.63;;
51296;SDS011;37380;45.186;9.792;2022-10-31T11:54:28;32.25;;;16.08;;
51296;SDS011;37380;45.186;9.792;2022-10-31T11:57:21;34.08;;;17.83;;
51296;SDS011;37380;45.186;9.792;2022-10-31T11:59:59;32.47;;;16.98;;
51296;SDS011;37380;45.186;9.792;2022-10-31T12:02:37;23.38;;;15.25;;
51296;SDS011;37380;45.186;9.792;2022-10-31T12:05:08;24.67;;;15.98;;
51296;SDS011;37380;45.186;9.792;2022-10-31T12:07:44;34.40;;;16.63;;
51296;SDS011;37380;45.186;9.792;2022-10-31T12:10:11;23.02;;;14.18;;
51296;SDS011;37380;45.186;9.792;2022-10-31T12:16:11;37.70;;;15.10;;
51296;SDS011;37380;45.186;9.792;2022-10-31T12:30:21;38.13;;;15.27;;
51296;SDS011;37380;45.186;9.792;2022-10-31T12:51:24;37.38;;;13.40;;
51296;SDS011;37380;45.186;9.792;2022-10-31T12:57:52;43.20;;;17.02;;
51296;SDS011;37380;45.186;9.792;2022-10-31T13:00:25;36.00;;;17.23;;
51296;SDS011;37380;45.186;9.792;2022-10-31T13:05:34;35.40;;;16.77;;
51296;SDS011;37380;45.186;9.792;2022-10-31T13:08:33;33.70;;;14.35;;
51296;SDS011;37380;45.186;9.792;2022-10-31T13:11:16;28.33;;;13.98;;
51296;SDS011;37380;45.186;9.792;2022-10-31T13:16:34;20.08;;;13.63;;
51296;SDS011;37380;45.186;9.792;2022-10-31T13:19:25;23.92;;;13.25;;
51296;SDS011;37380;45.186;9.792;2022-10-31T13:22:32;35.58;;;13.95;;
51296;SDS011;37380;45.186;9.792;2022-10-31T13:25:28;30.23;;;13.30;;
51296;SDS011;37380;45.186;9.792;2022-10-31T13:30:43;31.25;;;12.73;;
51296;SDS011;37380;45.186;9.792;2022-10-31T13:33:46;30.02;;;11.43;;
51296;SDS011;37380;45.186;9.792;2022-10-31T13:45:48;29.77;;;12.63;;
51296;SDS011;37380;45.186;9.792;2022-10-31T13:48:18;32.28;;;11.20;;
51296;SDS011;37380;45.186;9.792;2022-10-31T13:50:57;33.22;;;11.43;;
51296;SDS011;37380;45.186;9.792;2022-10-31T13:54:05;25.50;;;10.57;;
51296;SDS011;37380;45.186;9.792;2022-10-31T14:02:48;23.15;;;13.18;;
51296;SDS011;37380;45.186;9.792;2022-10-31T14:05:26;24.42;;;11.95;;
51296;SDS011;37380;45.186;9.792;2022-10-31T14:08:23;25.92;;;10.93;;
51296;SDS011;37380;45.186;9.792;2022-10-31T14:10:51;23.65;;;10.93;;
51296;SDS011;37380;45.186;9.792;2022-10-31T14:15:54;23.45;;;10.93;;
51296;SDS011;37380;45.186;9.792;2022-10-31T14:23:51;26.08;;;10.60;;
51296;SDS011;37380;45.186;9.792;2022-10-31T14:29:02;21.50;;;10.20;;
51296;SDS011;37380;45.186;9.792;2022-10-31T14:31:42;26.60;;;11.23;;
51296;SDS011;37380;45.186;9.792;2022-10-31T14:41:15;25.55;;;10.63;;
51296;SDS011;37380;45.186;9.792;2022-10-31T14:50:20;23.33;;;11.95;;
51296;SDS011;37380;45.186;9.792;2022-10-31T14:52:59;29.63;;;13.13;;
51296;SDS011;37380;45.186;9.792;2022-10-31T14:56:03;19.55;;;11.30;;
51296;SDS011;37380;45.186;9.792;2022-10-31T14:58:37;25.88;;;12.48;;
51296;SDS011;37380;45.186;9.792;2022-10-31T15:01:21;22.15;;;11.15;;
51296;SDS011;37380;45.186;9.792;2022-10-31T15:04:00;29.50;;;11.43;;
51296;SDS011;37380;45.186;9.792;2022-10-31T15:06:53;21.52;;;12.50;;
51296;SDS011;37380;45.186;9.792;2022-10-31T15:09:33;22.73;;;12.30;;
51296;SDS011;37380;45.186;9.792;2022-10-31T15:14:51;28.25;;;10.45;;
51296;SDS011;37380;45.186;9.792;2022-10-31T15:17:19;39.50;;;14.32;;
51296;SDS011;37380;45.186;9.792;2022-10-31T15:19:55;29.13;;;12.13;;
51296;SDS011;37380;45.186;9.792;2022-10-31T15:22:49;27.73;;;13.02;;
51296;SDS011;37380;45.186;9.792;2022-10-31T15:25:18;41.85;;;12.18;;
51296;SDS011;37380;45.186;9.792;2022-10-31T15:27:56;21.23;;;10.52;;
51296;SDS011;37380;45.186;9.792;2022-10-31T15:31:01;38.47;;;11.63;;
51296;SDS011;37380;45.186;9.792;2022-10-31T15:33:31;26.80;;;11.52;;
51296;SDS011;37380;45.186;9.792;2022-10-31T15:36:18;25.02;;;11.10;;
51296;SDS011;37380;45.186;9.792;2022-10-31T15:39:00;27.65;;;10.88;;
51296;SDS011;37380;45.186;9.792;2022-10-31T15:42:01;43.03;;;11.63;;
51296;SDS011;37380;45.186;9.792;2022-10-31T15:45:04;29.50;;;12.27;;
51296;SDS011;37380;45.186;9.792;2022-10-31T15:48:15;29.92;;;11.13;;
51296;SDS011;37380;45.186;9.792;2022-10-31T15:50:51;37.13;;;12.23;;
51296;SDS011;37380;45.186;9.792;2022-10-31T15:53:32;48.17;;;13.10;;
51296;SDS011;37380;45.186;9.792;2022-10-31T15:56:31;25.88;;;11.43;;
51296;SDS011;37380;45.186;9.792;2022-10-31T15:58:59;45.10;;;12.75;;
51296;SDS011;37380;45.186;9.792;2022-10-31T16:01:32;31.98;;;13.60;;
51296;SDS011;37380;45.186;9.792;2022-10-31T16:04:05;47.13;;;12.30;;
51296;SDS011;37380;45.186;9.792;2022-10-31T16:07:02;23.75;;;10.30;;
51296;SDS011;37380;45.186;9.792;2022-10-31T16:09:51;32.53;;;10.57;;
51296;SDS011;37380;45.186;9.792;2022-10-31T16:12:34;27.85;;;12.07;;
51296;SDS011;37380;45.186;9.792;2022-10-31T16:15:04;21.73;;;11.48;;
51296;SDS011;37380;45.186;9.792;2022-10-31T16:17:34;33.30;;;12.13;;
51296;SDS011;37380;45.186;9.792;2022-10-31T16:20:03;18.55;;;10.65;;
51296;SDS011;37380;45.186;9.792;2022-10-31T16:22:34;27.52;;;13.10;;
51296;SDS011;37380;45.186;9.792;2022-10-31T16:25:37;32.50;;;11.88;;
51296;SDS011;37380;45.186;9.792;2022-10-31T16:28:21;25.77;;;11.88;;
51296;SDS011;37380;45.186;9.792;2022-10-31T16:30:56;29.80;;;12.55;;
51296;SDS011;37380;45.186;9.792;2022-10-31T16:33:30;26.60;;;13.63;;
51296;SDS011;37380;45.186;9.792;2022-10-31T16:39:39;29.13;;;12.93;;
51296;SDS011;37380;45.186;9.792;2022-10-31T16:42:40;41.83;;;14.90;;
51296;SDS011;37380;45.186;9.792;2022-10-31T16:45:22;44.70;;;15.60;;
51296;SDS011;37380;45.186;9.792;2022-10-31T16:48:04;54.97;;;13.15;;
51296;SDS011;37380;45.186;9.792;2022-10-31T16:51:08;29.98;;;11.23;;
51296;SDS011;37380;45.186;9.792;2022-10-31T16:54:09;34.65;;;13.02;;
51296;SDS011;37380;45.186;9.792;2022-10-31T16:57:03;52.35;;;12.77;;
51296;SDS011;37380;45.186;9.792;2022-10-31T16:59:32;31.75;;;12.52;;
51296;SDS011;37380;45.186;9.792;2022-10-31T17:02:00;32.97;;;14.35;;
51296;SDS011;37380;45.186;9.792;2022-10-31T17:04:39;48.05;;;14.40;;
51296;SDS011;37380;45.186;9.792;2022-10-31T17:07:06;42.33;;;14.48;;
51296;SDS011;37380;45.186;9.792;2022-10-31T17:09:33;39.28;;;15.07;;
51296;SDS011;37380;45.186;9.792;2022-10-31T17:12:01;33.50;;;14.48;;
51296;SDS011;37380;45.186;9.792;2022-10-31T17:14:34;32.00;;;12.30;;
51296;SDS011;37380;45.186;9.792;2022-10-31T17:17:02;46.17;;;13.20;;
51296;SDS011;37380;45.186;9.792;2022-10-31T17:19:30;45.22;;;12.68;;
51296;SDS011;37380;45.186;9.792;2022-10-31T17:21:57;25.77;;;12.75;;
51296;SDS011;37380;45.186;9.792;2022-10-31T17:24:24;41.25;;;14.93;;
51296;SDS011;37380;45.186;9.792;2022-10-31T17:26:51;47.65;;;15.45;;
51296;SDS011;37380;45.186;9.792;2022-10-31T17:29:18;36.30;;;14.70;;
51296;SDS011;37380;45.186;9.792;2022-10-31T17:31:53;43.70;;;15.60;;
51296;SDS011;37380;45.186;9.792;2022-10-31T17:34:48;46.17;;;16.35;;
51296;SDS011;37380;45.186;9.792;2022-10-31T17:37:15;31.83;;;15.38;;
51296;SDS011;37380;45.186;9.792;2022-10-31T17:39:49;32.38;;;14.75;;
51296;SDS011;37380;45.186;9.792;2022-10-31T17:42:50;48.78;;;19.23;;
51296;SDS011;37380;45.186;9.792;2022-10-31T17:45:19;56.35;;;19.13;;
51296;SDS011;37380;45.186;9.792;2022-10-31T17:47:48;39.40;;;16.95;;
51296;SDS011;37380;45.186;9.792;2022-10-31T17:50:17;50.70;;;15.27;;
51296;SDS011;37380;45.186;9.792;2022-10-31T17:52:54;34.45;;;14.63;;
51296;SDS011;37380;45.186;9.792;2022-10-31T17:55:59;50.42;;;20.33;;
51296;SDS011;37380;45.186;9.792;2022-10-31T18:01:23;60.80;;;19.80;;
51296;SDS011;37380;45.186;9.792;2022-10-31T18:03:51;46.95;;;16.42;;
51296;SDS011;37380;45.186;9.792;2022-10-31T18:06:18;41.55;;;17.75;;
51296;SDS011;37380;45.186;9.792;2022-10-31T18:08:45;51.55;;;15.27;;
51296;SDS011;37380;45.186;9.792;2022-10-31T18:11:15;53.50;;;18.38;;
51296;SDS011;37380;45.186;9.792;2022-10-31T18:13:43;42.53;;;18.15;;
51296;SDS011;37380;45.186;9.792;2022-10-31T18:16:11;42.70;;;17.00;;
51296;SDS011;37380;45.186;9.792;2022-10-31T18:18:41;35.42;;;15.88;;
51296;SDS011;37380;45.186;9.792;2022-10-31T18:21:08;44.67;;;19.85;;
51296;SDS011;37380;45.186;9.792;2022-10-31T18:23:36;58.67;;;20.48;;
51296;SDS011;37380;45.186;9.792;2022-10-31T18:26:03;53.88;;;19.52;;